createdAt,value
2023-03-26T00:00:16.919Z,23.82
2023-03-26T00:02:47.324Z,23.90
2023-03-26T00:05:17.488Z,23.76
2023-03-26T00:07:48.338Z,23.93
2023-03-26T00:10:18.198Z,23.95
2023-03-26T00:12:48.496Z,24.03
2023-03-26T00:15:18.594Z,23.75
2023-03-26T00:17:48.870Z,23.62
2023-03-26T00:20:18.834Z,23.56
2023-03-26T00:22:49.132Z,23.49
2023-03-26T00:25:19.314Z,23.50
2023-03-26T00:27:50.729Z,23.62
2023-03-26T00:30:20.704Z,23.71
2023-03-26T00:32:53.714Z,23.71
2023-03-26T00:35:25.132Z,23.61
2023-03-26T00:37:55.624Z,23.53
2023-03-26T00:40:25.831Z,23.69
2023-03-26T00:42:56.054Z,23.67
2023-03-26T00:45:25.818Z,23.82
2023-03-26T00:47:55.655Z,23.99
2023-03-26T00:50:25.870Z,24.09
2023-03-26T00:52:56.925Z,24.20
2023-03-26T00:55:27.184Z,24.20
2023-03-26T00:57:57.516Z,24.16
2023-03-26T01:00:37.625Z,24.15
2023-03-26T01:03:08.490Z,24.14
2023-03-26T01:05:44.228Z,24.05
2023-03-26T01:08:30.241Z,23.92
2023-03-26T01:11:06.392Z,23.71
2023-03-26T01:13:41.161Z,23.93
2023-03-26T01:16:31.190Z,23.92
2023-03-26T01:19:01.648Z,23.93
2023-03-26T01:21:32.870Z,24.06
2023-03-26T01:24:07.773Z,23.91
2023-03-26T01:26:40.934Z,23.89
2023-03-26T01:29:21.802Z,23.75
2023-03-26T01:32:36.102Z,24.01
2023-03-26T01:35:34.685Z,23.75
2023-03-26T01:38:36.684Z,23.62
2023-03-26T01:41:13.472Z,23.52
2023-03-26T01:44:06.228Z,23.66
2023-03-26T01:46:37.469Z,23.63
2023-03-26T01:49:14.254Z,23.70
2023-03-26T01:51:44.623Z,23.85
2023-03-26T01:54:24.409Z,24.04
2023-03-26T01:57:15.665Z,24.14
2023-03-26T01:59:57.749Z,24.27
2023-03-26T02:02:41.482Z,24.38
2023-03-26T02:05:32.427Z,24.54
2023-03-26T02:08:13.154Z,24.64
2023-03-26T02:10:50.844Z,24.84
2023-03-26T02:13:21.483Z,24.98
2023-03-26T02:16:00.825Z,25.17
2023-03-26T02:18:42.295Z,25.13
2023-03-26T02:21:16.612Z,25.47
2023-03-26T02:23:49.823Z,25.55
2023-03-26T02:26:21.901Z,25.56
2023-03-26T02:29:13.530Z,25.54
2023-03-26T02:31:47.598Z,25.61
2023-03-26T02:34:17.914Z,25.64
2023-03-26T02:36:58.281Z,25.63
2023-03-26T02:39:28.239Z,25.61
2023-03-26T02:42:04.848Z,25.53
2023-03-26T02:44:41.402Z,25.52
2023-03-26T02:47:11.657Z,25.66
2023-03-26T02:49:50.550Z,25.61
2023-03-26T02:52:41.133Z,25.69
2023-03-26T02:55:11.079Z,25.69
2023-03-26T02:57:43.277Z,25.74
2023-03-26T03:00:25.019Z,25.75
2023-03-26T03:03:14.288Z,25.74
2023-03-26T03:06:02.295Z,25.71
2023-03-26T03:08:37.469Z,25.73
2023-03-26T03:11:16.962Z,25.70
2023-03-26T03:13:50.829Z,25.73
2023-03-26T03:16:32.459Z,25.74
2023-03-26T03:19:11.836Z,25.75
2023-03-26T03:21:43.548Z,25.77
2023-03-26T03:24:14.991Z,25.72
2023-03-26T03:26:48.638Z,25.83
2023-03-26T03:29:40.943Z,25.84
2023-03-26T03:32:45.524Z,25.78
2023-03-26T03:35:19.941Z,25.60
2023-03-26T03:37:53.253Z,25.34
2023-03-26T03:40:23.489Z,25.16
2023-03-26T03:42:53.416Z,24.98
2023-03-26T03:45:33.000Z,24.96
2023-03-26T03:48:25.512Z,24.91
2023-03-26T03:50:57.308Z,24.81
2023-03-26T03:53:30.011Z,24.76
2023-03-26T03:56:03.160Z,24.72
2023-03-26T03:58:52.753Z,24.61
2023-03-26T04:01:31.938Z,24.78
2023-03-26T04:04:09.750Z,24.83
2023-03-26T04:07:15.137Z,24.85
2023-03-26T04:10:09.948Z,24.87
2023-03-26T04:12:58.602Z,24.83
2023-03-26T04:15:46.818Z,24.88
2023-03-26T04:18:17.136Z,24.87
2023-03-26T04:20:48.664Z,24.89
2023-03-26T04:23:24.583Z,24.72
2023-03-26T04:26:05.414Z,24.71
2023-03-26T04:29:07.499Z,24.87
2023-03-26T04:31:39.414Z,25.07
2023-03-26T04:34:19.585Z,25.16
2023-03-26T04:36:59.886Z,25.09
2023-03-26T04:39:35.497Z,25.18
2023-03-26T04:42:25.384Z,25.12
2023-03-26T04:45:12.443Z,25.17
2023-03-26T04:47:44.127Z,25.19
2023-03-26T04:50:14.659Z,25.18
2023-03-26T04:52:45.392Z,25.20
2023-03-26T04:55:25.595Z,25.23
2023-03-26T04:58:06.630Z,25.27
2023-03-26T05:00:56.383Z,25.29
2023-03-26T05:03:26.824Z,25.25
2023-03-26T05:05:58.491Z,25.21
2023-03-26T05:08:29.933Z,25.27
2023-03-26T05:11:00.143Z,25.22
2023-03-26T05:13:35.770Z,25.22
2023-03-26T05:16:12.278Z,25.26
2023-03-26T05:18:47.675Z,25.32
2023-03-26T05:21:18.203Z,25.33
2023-03-26T05:23:48.360Z,25.37
2023-03-26T05:26:21.505Z,25.37
2023-03-26T05:28:52.687Z,25.33
2023-03-26T05:31:31.928Z,25.27
2023-03-26T05:34:02.739Z,25.23
2023-03-26T05:36:33.115Z,25.13
2023-03-26T05:39:26.819Z,25.07
2023-03-26T05:42:23.029Z,25.06
2023-03-26T05:45:13.610Z,25.01
2023-03-26T05:47:44.334Z,25.04
2023-03-26T05:50:14.200Z,25.04
2023-03-26T05:52:45.837Z,25.13
2023-03-26T05:55:34.521Z,25.19
2023-03-26T05:58:28.854Z,25.19
2023-03-26T06:01:20.681Z,25.21
2023-03-26T06:04:20.211Z,25.19
2023-03-26T06:07:13.107Z,25.21
2023-03-26T06:09:47.602Z,25.26
2023-03-26T06:12:17.670Z,25.24
2023-03-26T06:14:48.437Z,25.19
2023-03-26T06:17:25.916Z,25.13
2023-03-26T06:20:09.413Z,25.07
2023-03-26T06:22:42.921Z,25.02
2023-03-26T06:25:24.346Z,25.07
2023-03-26T06:28:06.884Z,25.05
2023-03-26T06:30:57.517Z,25.04
2023-03-26T06:33:43.380Z,24.98
2023-03-26T06:36:16.043Z,24.96
2023-03-26T06:38:46.354Z,24.99
2023-03-26T06:41:16.581Z,24.94
2023-03-26T06:43:59.608Z,24.84
2023-03-26T06:46:53.167Z,24.76
2023-03-26T06:49:45.904Z,24.75
2023-03-26T06:52:34.289Z,24.77
2023-03-26T06:55:12.193Z,24.81
2023-03-26T06:58:08.680Z,25.02
2023-03-26T07:01:07.321Z,25.14
2023-03-26T07:03:55.879Z,25.22
2023-03-26T07:06:48.106Z,25.19
2023-03-26T07:09:49.160Z,25.28
2023-03-26T07:12:37.186Z,25.44
2023-03-26T07:15:25.686Z,25.49
2023-03-26T07:18:30.474Z,24.97
2023-03-26T07:21:01.516Z,24.19
2023-03-26T07:23:34.053Z,23.73
2023-03-26T07:27:04.024Z,23.44
2023-03-26T07:30:05.618Z,23.35
2023-03-26T07:33:01.075Z,23.34
2023-03-26T07:36:18.516Z,23.42
2023-03-26T07:39:39.337Z,23.50
2023-03-26T07:42:40.410Z,23.61
2023-03-26T07:45:39.204Z,23.70
2023-03-26T07:48:29.367Z,23.76
2023-03-26T07:51:19.766Z,23.79
2023-03-26T07:54:05.336Z,23.81
2023-03-26T07:57:36.735Z,23.82
2023-03-26T08:00:38.764Z,23.81
2023-03-26T08:03:32.038Z,23.74
2023-03-26T08:06:07.130Z,23.72
2023-03-26T08:09:04.708Z,23.70
2023-03-26T08:11:59.251Z,23.67
2023-03-26T08:14:42.420Z,23.60
2023-03-26T08:17:17.399Z,23.51
2023-03-26T08:19:55.858Z,23.54
2023-03-26T08:22:35.588Z,23.53
2023-03-26T08:25:11.679Z,23.54
2023-03-26T08:27:44.996Z,23.47
2023-03-26T08:30:22.463Z,23.46
2023-03-26T08:33:20.340Z,23.49
2023-03-26T08:35:51.126Z,23.48
2023-03-26T08:38:22.957Z,23.50
2023-03-26T08:41:16.360Z,23.44
2023-03-26T08:44:09.708Z,23.39
2023-03-26T08:46:57.718Z,23.38
2023-03-26T08:49:36.335Z,23.31
2023-03-26T08:52:18.027Z,23.33
2023-03-26T08:55:07.280Z,23.35
2023-03-26T08:58:05.518Z,23.33
2023-03-26T09:00:35.634Z,23.32
2023-03-26T09:03:48.323Z,23.25
2023-03-26T09:06:44.396Z,23.23
2023-03-26T09:09:35.369Z,23.12
2023-03-26T09:12:42.675Z,23.11
2023-03-26T09:15:51.405Z,23.15
2023-03-26T09:18:45.488Z,23.11
2023-03-26T09:21:33.618Z,23.08
2023-03-26T09:24:28.753Z,23.10
2023-03-26T09:27:22.101Z,23.08
2023-03-26T09:30:21.322Z,23.09
2023-03-26T09:33:29.765Z,23.13
2023-03-26T09:36:24.507Z,23.14
2023-03-26T09:39:01.553Z,23.13
2023-03-26T09:41:34.268Z,23.03
2023-03-26T09:44:12.789Z,22.99
2023-03-26T09:46:56.636Z,22.99
2023-03-26T09:49:43.616Z,22.98
2023-03-26T09:52:13.802Z,23.00
2023-03-26T09:55:09.750Z,22.99
2023-03-26T09:57:39.922Z,23.05
2023-03-26T10:00:17.841Z,23.05
2023-03-26T10:03:27.434Z,23.06
2023-03-26T10:06:27.825Z,23.11
2023-03-26T10:09:00.712Z,23.10
2023-03-26T10:11:34.485Z,23.15
2023-03-26T10:14:08.389Z,23.20
2023-03-26T10:17:17.969Z,23.20
2023-03-26T10:20:03.539Z,23.19
2023-03-26T10:22:42.546Z,23.14
2023-03-26T10:25:32.089Z,23.07
2023-03-26T10:28:15.518Z,23.11
2023-03-26T10:31:20.490Z,23.25
2023-03-26T10:34:28.546Z,23.40
2023-03-26T10:37:05.030Z,23.55
2023-03-26T10:39:43.541Z,23.74
2023-03-26T10:42:22.499Z,23.69
2023-03-26T10:45:23.637Z,23.68
2023-03-26T10:48:14.968Z,23.62
2023-03-26T10:50:56.156Z,23.61
2023-03-26T10:53:50.601Z,23.63
2023-03-26T10:56:53.048Z,23.54
2023-03-26T10:59:23.298Z,23.54
2023-03-26T11:02:30.512Z,23.55
2023-03-26T11:05:16.109Z,23.62
2023-03-26T11:07:54.981Z,23.68
2023-03-26T11:10:38.354Z,23.68
2023-03-26T11:13:35.753Z,23.69
2023-03-26T11:16:15.736Z,23.70
2023-03-26T11:19:25.712Z,23.63
2023-03-26T11:22:39.555Z,23.67
2023-03-26T11:25:32.469Z,23.70
2023-03-26T11:28:22.323Z,23.73
2023-03-26T11:31:10.698Z,23.74
2023-03-26T11:33:47.718Z,23.88
2023-03-26T11:39:16.675Z,23.94
2023-03-26T11:41:47.611Z,23.94
2023-03-26T11:44:37.948Z,23.95
2023-03-26T11:47:13.282Z,23.97
2023-03-26T11:49:44.204Z,24.01
2023-03-26T11:52:16.868Z,23.97
2023-03-26T11:54:49.549Z,24.05
2023-03-26T11:57:27.697Z,24.23
2023-03-26T12:00:05.496Z,24.34
2023-03-26T12:02:42.819Z,24.51
2023-03-26T12:05:17.101Z,24.50
2023-03-26T12:07:57.008Z,24.56
2023-03-26T12:10:39.924Z,24.78
2023-03-26T12:13:56.087Z,24.85
2023-03-26T12:16:25.894Z,24.61
2023-03-26T12:19:09.319Z,24.36
2023-03-26T12:21:54.044Z,24.48
2023-03-26T12:24:35.275Z,24.35
2023-03-26T12:27:29.597Z,24.08
2023-03-26T12:30:13.601Z,23.94
2023-03-26T12:32:46.915Z,23.95
2023-03-26T12:35:27.813Z,23.96
2023-03-26T12:38:25.179Z,24.07
2023-03-26T12:41:07.839Z,23.99
2023-03-26T12:44:47.212Z,24.08
2023-03-26T12:47:57.381Z,24.13
2023-03-26T12:49:27.798Z,24.96
2023-03-26T12:52:12.144Z,25.63
2023-03-26T12:55:12.135Z,25.52
2023-03-26T12:58:14.006Z,25.43
2023-03-26T13:04:06.684Z,25.38
2023-03-26T13:06:59.078Z,25.53
2023-03-26T13:09:45.243Z,25.57
2023-03-26T13:12:28.306Z,25.80
2023-03-26T13:15:16.819Z,26.05
2023-03-26T13:18:08.651Z,25.79
2023-03-26T13:20:43.177Z,26.18
2023-03-26T13:23:18.923Z,26.20
2023-03-26T13:25:55.057Z,26.04
2023-03-26T13:28:49.568Z,26.13
2023-03-26T13:31:41.155Z,26.09
2023-03-26T13:34:24.980Z,26.00
2023-03-26T13:37:13.928Z,26.16
2023-03-26T13:40:11.985Z,26.18
2023-03-26T13:42:56.819Z,26.34
2023-03-26T13:45:41.467Z,26.69
2023-03-26T13:48:20.626Z,26.72
2023-03-26T13:50:59.440Z,26.68
2023-03-26T13:53:55.037Z,26.45
2023-03-26T13:56:34.044Z,26.27
2023-03-26T13:59:21.902Z,26.19
2023-03-26T14:01:57.798Z,25.85
2023-03-26T14:04:35.543Z,25.73
2023-03-26T14:07:20.178Z,25.70
2023-03-26T14:10:00.282Z,25.34
2023-03-26T14:12:50.345Z,25.21
2023-03-26T14:15:40.176Z,25.05
2023-03-26T14:18:32.850Z,25.10
2023-03-26T14:21:22.942Z,25.03
2023-03-26T14:24:11.477Z,24.85
2023-03-26T14:26:44.711Z,24.89
2023-03-26T14:29:14.469Z,24.75
2023-03-26T14:31:51.041Z,24.71
2023-03-26T14:34:44.311Z,24.76
2023-03-26T14:37:27.321Z,24.82
2023-03-26T14:40:18.111Z,24.62
2023-03-26T14:43:03.275Z,24.42
2023-03-26T14:46:20.264Z,24.16
2023-03-26T14:49:04.955Z,24.40
2023-03-26T14:51:57.962Z,24.28
2023-03-26T14:54:31.180Z,23.83
2023-03-26T14:57:11.063Z,23.45
2023-03-26T15:00:16.754Z,23.03
2023-03-26T15:03:11.157Z,22.90
2023-03-26T15:06:02.371Z,22.92
2023-03-26T15:08:53.451Z,23.03
2023-03-26T15:11:26.629Z,23.31
2023-03-26T15:14:25.161Z,23.87
2023-03-26T15:16:57.764Z,24.74
2023-03-26T15:20:04.433Z,25.37
2023-03-26T15:23:09.521Z,26.00
2023-03-26T15:25:56.951Z,26.42
2023-03-26T15:28:45.098Z,26.65
2023-03-26T15:31:43.614Z,26.66
2023-03-26T15:34:44.272Z,26.42
2023-03-26T15:37:35.822Z,25.96
2023-03-26T15:40:34.527Z,25.61
2023-03-26T15:43:07.856Z,25.76
2023-03-26T15:46:00.258Z,25.77
2023-03-26T15:48:33.486Z,25.93
2023-03-26T15:51:46.765Z,26.23
2023-03-26T15:55:21.830Z,26.32
2023-03-26T15:58:06.177Z,26.18
2023-03-26T16:01:04.198Z,26.29
2023-03-26T16:03:58.220Z,25.82
2023-03-26T16:06:32.165Z,26.59
2023-03-26T16:09:04.572Z,28.13
2023-03-26T16:12:00.039Z,28.77
2023-03-26T16:14:49.296Z,28.62
2023-03-26T16:17:24.442Z,28.41
2023-03-26T16:20:33.731Z,27.94
2023-03-26T16:23:07.330Z,28.48
2023-03-26T16:26:00.092Z,29.02
2023-03-26T16:28:33.771Z,28.87
2023-03-26T16:31:23.602Z,28.94
2023-03-26T16:34:01.104Z,29.82
2023-03-26T16:36:45.863Z,29.78
2023-03-26T16:39:38.952Z,29.84
2023-03-26T16:42:39.807Z,29.30
2023-03-26T16:45:35.890Z,28.62
2023-03-26T16:48:37.050Z,29.34
2023-03-26T16:51:19.714Z,30.33
2023-03-26T16:54:14.541Z,30.51
2023-03-26T16:56:52.463Z,29.86
2023-03-26T17:00:07.676Z,29.10
2023-03-26T17:02:53.601Z,29.05
2023-03-26T17:05:27.149Z,28.00
2023-03-26T17:08:36.501Z,26.83
2023-03-26T17:11:23.876Z,25.88
2023-03-26T17:14:13.144Z,25.38
2023-03-26T17:17:09.306Z,25.07
2023-03-26T17:19:50.993Z,25.20
2023-03-26T17:22:30.967Z,25.99
2023-03-26T17:25:21.628Z,26.78
2023-03-26T17:28:44.892Z,26.05
2023-03-26T17:31:32.762Z,26.09
2023-03-26T17:34:40.279Z,26.25
2023-03-26T17:37:18.561Z,27.32
2023-03-26T17:39:48.774Z,28.13
2023-03-26T17:42:19.914Z,29.33
2023-03-26T17:45:00.850Z,30.14
2023-03-26T17:47:36.858Z,30.75
2023-03-26T17:50:13.202Z,31.42
2023-03-26T17:53:17.801Z,31.30
2023-03-26T17:55:51.184Z,30.70
2023-03-26T17:58:28.161Z,31.88
2023-03-26T18:01:23.761Z,31.14
2023-03-26T18:04:03.850Z,30.52
2023-03-26T18:06:58.754Z,30.40
2023-03-26T18:09:47.916Z,30.32
2023-03-26T18:12:45.045Z,30.87
2023-03-26T18:15:43.853Z,31.87
2023-03-26T18:18:29.762Z,31.88
2023-03-26T18:21:03.445Z,31.20
2023-03-26T18:23:38.006Z,30.89
2023-03-26T18:26:35.616Z,31.13
2023-03-26T18:29:28.431Z,31.61
2023-03-26T18:32:08.526Z,31.85
2023-03-26T18:34:41.577Z,31.63
2023-03-26T18:37:35.336Z,31.67
2023-03-26T18:40:17.652Z,31.61
2023-03-26T18:42:52.860Z,31.73
2023-03-26T18:45:37.497Z,32.32
2023-03-26T18:48:15.207Z,32.06
2023-03-26T18:50:46.499Z,31.60
2023-03-26T18:53:22.519Z,31.18
2023-03-26T18:55:53.615Z,31.10
2023-03-26T18:58:34.000Z,30.49
2023-03-26T19:01:14.382Z,31.07
2023-03-26T19:03:54.861Z,31.37
2023-03-26T19:06:27.111Z,31.30
2023-03-26T19:08:59.276Z,31.38
2023-03-26T19:11:32.377Z,30.73
2023-03-26T19:14:23.703Z,31.32
2023-03-26T19:17:02.082Z,31.62
2023-03-26T19:19:35.356Z,31.05
2023-03-26T19:22:12.629Z,30.08
2023-03-26T19:24:43.953Z,30.42
2023-03-26T19:27:14.292Z,30.01
2023-03-26T19:29:45.986Z,29.76
2023-03-26T19:32:22.557Z,29.25
2023-03-26T19:34:53.674Z,28.70
2023-03-26T19:37:26.402Z,28.44
2023-03-26T19:40:08.369Z,28.27
2023-03-26T19:42:43.467Z,27.93
2023-03-26T19:45:29.596Z,27.13
2023-03-26T19:48:14.417Z,26.40
2023-03-26T19:50:54.369Z,25.81
2023-03-26T19:53:36.654Z,25.18
2023-03-26T19:56:20.619Z,24.87
2023-03-26T19:58:53.924Z,24.69
2023-03-26T20:01:26.773Z,24.50
2023-03-26T20:04:01.056Z,24.41
2023-03-26T20:06:42.631Z,24.38
2023-03-26T20:09:15.308Z,24.20
2023-03-26T20:11:47.683Z,24.11
2023-03-26T20:14:26.950Z,24.13
2023-03-26T20:16:57.965Z,24.12
2023-03-26T20:19:28.570Z,24.23
2023-03-26T20:21:59.900Z,24.26
2023-03-26T20:24:32.316Z,24.49
2023-03-26T20:27:02.694Z,24.68
2023-03-26T20:29:32.339Z,24.94
2023-03-26T20:32:02.207Z,25.06
2023-03-26T20:34:33.202Z,25.05
2023-03-26T20:37:04.257Z,25.04
2023-03-26T20:39:35.570Z,24.89
2023-03-26T20:42:05.556Z,24.78
2023-03-26T20:44:35.222Z,24.67
2023-03-26T20:47:06.237Z,24.59
2023-03-26T20:49:36.525Z,24.47
2023-03-26T20:52:06.878Z,24.47
2023-03-26T20:54:36.962Z,24.25
2023-03-26T20:57:07.556Z,24.34
2023-03-26T20:59:37.268Z,24.37
2023-03-26T21:02:07.562Z,24.31
2023-03-26T21:04:37.199Z,24.19
2023-03-26T21:07:17.809Z,24.17
2023-03-26T21:09:50.333Z,24.03
2023-03-26T21:12:32.455Z,23.98
2023-03-26T21:15:09.964Z,23.93
2023-03-26T21:17:43.771Z,23.79
2023-03-26T21:20:14.910Z,23.56
2023-03-26T21:23:12.856Z,23.54
2023-03-26T21:25:50.070Z,23.52
2023-03-26T21:28:22.048Z,23.33
2023-03-26T21:30:53.254Z,23.27
2023-03-26T21:33:24.971Z,23.29
2023-03-26T21:35:58.641Z,23.40
2023-03-26T21:38:33.872Z,23.51
2023-03-26T21:41:05.043Z,23.44
2023-03-26T21:43:34.977Z,23.03
2023-03-26T21:46:06.061Z,22.58
2023-03-26T21:48:37.443Z,22.66
2023-03-26T21:51:09.291Z,23.03
2023-03-26T21:53:39.656Z,23.10
2023-03-26T21:56:19.924Z,23.18
2023-03-26T21:59:12.021Z,23.34
2023-03-26T22:02:20.495Z,23.07
2023-03-26T22:05:22.139Z,22.80
2023-03-26T22:08:06.585Z,22.33
2023-03-26T22:10:36.781Z,22.12
2023-03-26T22:13:06.458Z,22.11
2023-03-26T22:15:36.823Z,22.10
2023-03-26T22:18:08.550Z,22.09
2023-03-26T22:20:38.938Z,21.96
2023-03-26T22:23:10.519Z,22.41
2023-03-26T22:25:41.033Z,22.37
2023-03-26T22:28:10.844Z,22.50
2023-03-26T22:30:41.168Z,22.39
2023-03-26T22:33:14.086Z,22.40
2023-03-26T22:35:44.430Z,22.06
2023-03-26T22:38:14.726Z,22.06
2023-03-26T22:40:44.864Z,22.10
2023-03-26T22:43:14.446Z,21.83
2023-03-26T22:45:52.526Z,21.70
2023-03-26T22:48:24.582Z,21.68
2023-03-26T22:51:06.882Z,22.06
2023-03-26T22:53:37.688Z,22.31
2023-03-26T22:56:08.377Z,22.27
2023-03-26T22:58:39.178Z,22.33
2023-03-26T23:01:12.976Z,22.35
2023-03-26T23:03:44.093Z,22.17
2023-03-26T23:06:14.597Z,22.11
2023-03-26T23:08:44.838Z,22.12
2023-03-26T23:11:19.948Z,22.23
2023-03-26T23:13:50.479Z,22.19
2023-03-26T23:16:22.502Z,22.23
2023-03-26T23:18:52.727Z,22.20
2023-03-26T23:21:23.638Z,22.19
2023-03-26T23:23:54.008Z,22.06
2023-03-26T23:26:25.421Z,22.02
2023-03-26T23:28:55.650Z,21.93
2023-03-26T23:31:26.468Z,21.89
2023-03-26T23:33:56.684Z,21.88
2023-03-26T23:36:26.475Z,21.86
2023-03-26T23:38:56.282Z,21.90
2023-03-26T23:41:26.497Z,21.36
2023-03-26T23:43:56.788Z,21.30
2023-03-26T23:46:31.262Z,21.01
2023-03-26T23:49:03.498Z,21.04
2023-03-26T23:51:34.075Z,21.27
2023-03-26T23:54:04.529Z,21.41
2023-03-26T23:56:34.440Z,21.31
2023-03-26T23:59:06.071Z,21.10
